createdAt,value
2018-11-13T00:00:23.301Z,56.77
2018-11-13T00:02:52.374Z,60.10
2018-11-13T00:05:21.605Z,56.67
2018-11-13T00:07:50.072Z,46.73
2018-11-13T00:10:18.596Z,44.50
2018-11-13T00:12:47.211Z,44.50
2018-11-13T00:15:15.731Z,44.37
2018-11-13T00:17:44.527Z,45.03
2018-11-13T00:20:17.430Z,46.37
2018-11-13T00:22:47.078Z,50.87
2018-11-13T00:25:16.939Z,43.47
2018-11-13T00:27:49.548Z,41.30
2018-11-13T00:30:23.877Z,48.77
2018-11-13T00:32:52.346Z,52.63
2018-11-13T00:35:21.486Z,60.27
2018-11-13T00:37:50.545Z,65.83
2018-11-13T00:40:19.433Z,69.50
2018-11-13T00:42:48.702Z,68.33
2018-11-13T00:45:17.490Z,74.07
2018-11-13T00:47:46.025Z,86.07
2018-11-13T00:50:17.055Z,84.40
2018-11-13T00:52:46.176Z,86.60
2018-11-13T00:55:15.012Z,87.80
2018-11-13T00:57:43.847Z,94.80
2018-11-13T01:00:16.112Z,87.70
2018-11-13T01:02:45.429Z,84.27
2018-11-13T01:05:17.403Z,75.60
2018-11-13T01:07:47.237Z,71.90
2018-11-13T01:10:17.781Z,63.47
2018-11-13T01:12:47.064Z,65.33
2018-11-13T01:15:16.832Z,69.23
2018-11-13T01:17:46.142Z,63.53
2018-11-13T01:20:15.819Z,64.57
2018-11-13T01:22:44.366Z,62.27
2018-11-13T01:25:14.033Z,57.50
2018-11-13T01:27:43.273Z,55.23
2018-11-13T01:30:12.562Z,55.65
2018-11-13T01:46:09.981Z,48.67
2018-11-13T01:48:38.741Z,46.80
2018-11-13T01:51:07.286Z,50.03
2018-11-13T01:53:35.817Z,45.67
2018-11-13T01:56:04.401Z,44.43
2018-11-13T01:58:33.222Z,48.33
2018-11-13T02:09:08.071Z,49.53
2018-11-13T02:11:36.749Z,47.80
2018-11-13T02:14:05.361Z,46.43
2018-11-13T02:16:33.893Z,46.40
2018-11-13T02:19:02.610Z,44.67
2018-11-13T02:21:31.907Z,43.50
2018-11-13T02:24:00.595Z,44.77
2018-11-13T02:26:29.469Z,44.00
2018-11-13T02:28:59.139Z,45.37
2018-11-13T02:31:27.743Z,41.57
2018-11-13T02:33:56.254Z,41.27
2018-11-13T02:36:24.963Z,43.33
2018-11-13T02:38:53.399Z,44.33
2018-11-13T02:41:21.856Z,44.97
2018-11-13T02:43:50.417Z,42.87
2018-11-13T02:46:18.980Z,43.20
2018-11-13T02:48:48.753Z,41.00
2018-11-13T02:51:17.483Z,42.97
2018-11-13T02:53:46.019Z,43.33
2018-11-13T02:56:14.645Z,42.63
2018-11-13T02:58:43.292Z,40.47
2018-11-13T03:01:11.846Z,40.70
2018-11-13T03:03:40.472Z,44.03
2018-11-13T03:06:08.981Z,44.13
2018-11-13T03:08:37.638Z,45.00
2018-11-13T03:11:06.072Z,45.25
2018-11-13T03:13:34.692Z,45.93
2018-11-13T03:16:03.032Z,45.10
2018-11-13T03:18:32.557Z,41.87
2018-11-13T03:21:01.054Z,42.67
2018-11-13T03:23:29.582Z,38.30
2018-11-13T03:25:58.094Z,42.37
2018-11-13T03:28:26.799Z,51.33
2018-11-13T03:30:55.662Z,40.23
2018-11-13T03:33:24.207Z,38.60
2018-11-13T03:35:52.724Z,40.63
2018-11-13T03:38:21.275Z,41.53
2018-11-13T03:40:49.846Z,44.20
2018-11-13T03:43:18.437Z,42.63
2018-11-13T03:45:47.069Z,44.23
2018-11-13T03:48:15.556Z,40.80
2018-11-13T03:50:44.122Z,44.37
2018-11-13T03:53:12.657Z,46.70
2018-11-13T03:55:41.514Z,45.43
2018-11-13T03:58:10.042Z,43.17
2018-11-13T04:00:38.656Z,47.37
2018-11-13T04:03:07.139Z,50.03
2018-11-13T04:05:35.734Z,51.40
2018-11-13T04:08:04.467Z,56.30
2018-11-13T04:10:32.966Z,62.17
2018-11-13T04:13:01.549Z,62.60
2018-11-13T04:15:30.200Z,67.13
2018-11-13T04:17:58.827Z,65.40
2018-11-13T04:20:27.611Z,71.53
2018-11-13T04:22:56.228Z,68.47
2018-11-13T04:25:24.840Z,73.30
2018-11-13T04:27:53.445Z,67.77
2018-11-13T04:30:21.891Z,69.30
2018-11-13T04:32:50.474Z,70.00
2018-11-13T04:35:19.392Z,78.97
2018-11-13T04:37:48.277Z,79.20
2018-11-13T04:40:17.991Z,72.93
2018-11-13T04:42:48.057Z,79.83
2018-11-13T04:45:17.767Z,79.50
2018-11-13T04:47:47.236Z,74.03
2018-11-13T04:50:17.190Z,77.47
2018-11-13T04:52:45.830Z,73.47
2018-11-13T04:55:14.810Z,84.90
2018-11-13T04:57:44.170Z,84.40
2018-11-13T05:00:15.274Z,83.97
2018-11-13T05:02:44.397Z,88.37
2018-11-13T05:05:13.956Z,92.53
2018-11-13T05:07:43.700Z,97.87
2018-11-13T05:10:13.011Z,90.30
2018-11-13T05:12:43.014Z,86.47
2018-11-13T05:15:12.019Z,79.17
2018-11-13T05:17:41.446Z,80.00
2018-11-13T05:20:10.978Z,80.13
2018-11-13T05:22:39.611Z,82.97
2018-11-13T05:25:10.490Z,78.10
2018-11-13T05:27:39.492Z,78.33
2018-11-13T05:30:10.428Z,77.10
2018-11-13T05:32:39.553Z,77.60
2018-11-13T05:35:10.477Z,72.23
2018-11-13T05:37:39.440Z,71.33
2018-11-13T05:40:10.654Z,79.77
2018-11-13T05:42:39.410Z,67.07
2018-11-13T05:45:09.602Z,77.80
2018-11-13T05:47:38.331Z,67.67
2018-11-13T05:50:08.166Z,66.80
2018-11-13T05:52:36.927Z,67.23
2018-11-13T05:55:06.577Z,68.03
2018-11-13T05:57:35.619Z,65.70
2018-11-13T06:00:04.447Z,67.33
2018-11-13T06:02:32.933Z,61.63
2018-11-13T06:05:01.585Z,61.73
2018-11-13T06:07:30.094Z,69.20
2018-11-13T06:09:58.814Z,66.57
2018-11-13T06:12:27.650Z,69.03
2018-11-13T06:14:56.139Z,67.43
2018-11-13T06:17:25.239Z,65.20
2018-11-13T06:19:53.754Z,66.80
2018-11-13T06:22:22.251Z,68.33
2018-11-13T06:24:50.993Z,64.00
2018-11-13T06:27:19.496Z,64.80
2018-11-13T06:29:48.164Z,62.53
2018-11-13T06:32:16.751Z,64.67
2018-11-13T06:34:45.258Z,61.70
2018-11-13T06:37:13.924Z,63.03
2018-11-13T06:39:42.397Z,60.73
2018-11-13T06:42:10.847Z,58.47
2018-11-13T06:44:39.383Z,59.57
2018-11-13T06:47:07.868Z,64.83
2018-11-13T06:49:36.661Z,60.20
2018-11-13T06:52:05.442Z,61.48
2018-11-13T06:55:14.755Z,60.63
2018-11-13T06:57:43.300Z,55.13
2018-11-13T07:00:11.755Z,52.60
2018-11-13T07:02:40.443Z,62.43
2018-11-13T07:05:11.676Z,61.37
2018-11-13T07:07:40.699Z,64.10
2018-11-13T07:10:11.505Z,60.80
2018-11-13T07:12:41.181Z,54.90
2018-11-13T07:15:11.658Z,50.00
2018-11-13T07:17:40.446Z,49.37
2018-11-13T07:20:09.538Z,51.70
2018-11-13T07:22:38.229Z,53.83
2018-11-13T07:25:07.023Z,51.97
2018-11-13T07:27:35.631Z,49.67
2018-11-13T07:30:04.660Z,46.80
2018-11-13T07:32:33.170Z,49.87
2018-11-13T07:35:01.730Z,45.63
2018-11-13T07:37:30.354Z,44.67
2018-11-13T07:39:58.907Z,48.33
2018-11-13T07:42:27.689Z,44.37
2018-11-13T07:44:56.488Z,48.87
2018-11-13T07:47:25.154Z,46.60
2018-11-13T07:49:53.702Z,49.53
2018-11-13T07:52:22.221Z,46.67
2018-11-13T07:54:50.801Z,48.00
2018-11-13T07:57:19.459Z,49.70
2018-11-13T07:59:47.908Z,43.90
2018-11-13T08:02:16.621Z,44.30
2018-11-13T08:04:45.187Z,42.20
2018-11-13T08:07:13.760Z,45.43
2018-11-13T08:09:42.777Z,40.13
2018-11-13T08:12:11.334Z,38.87
2018-11-13T08:14:40.242Z,38.40
2018-11-13T08:17:08.791Z,40.77
2018-11-13T08:19:37.390Z,39.90
2018-11-13T08:22:06.327Z,38.17
2018-11-13T08:24:34.783Z,38.23
2018-11-13T08:27:03.370Z,37.43
2018-11-13T08:29:31.914Z,38.70
2018-11-13T08:32:00.426Z,34.58
2018-11-13T08:34:29.118Z,35.00
2018-11-13T08:36:57.853Z,34.17
2018-11-13T08:39:26.401Z,36.57
2018-11-13T08:41:55.047Z,35.77
2018-11-13T08:44:23.830Z,37.50
2018-11-13T08:46:53.298Z,35.53
2018-11-13T08:49:21.858Z,35.17
2018-11-13T08:51:50.564Z,33.60
2018-11-13T08:54:19.104Z,30.70
2018-11-13T08:56:47.718Z,33.33
2018-11-13T08:59:16.343Z,30.93
2018-11-13T09:01:44.725Z,32.43
2018-11-13T09:04:13.259Z,36.03
2018-11-13T09:06:41.746Z,36.43
2018-11-13T09:09:12.338Z,40.23
2018-11-13T09:11:40.865Z,41.67
2018-11-13T09:14:09.603Z,47.80
2018-11-13T09:16:38.331Z,36.33
2018-11-13T09:19:07.021Z,53.53
2018-11-13T09:21:35.815Z,42.03
2018-11-13T09:24:04.406Z,71.13
2018-11-13T09:26:33.438Z,36.23
2018-11-13T09:29:01.947Z,37.73
2018-11-13T09:31:30.518Z,47.60
2018-11-13T09:33:59.275Z,34.77
2018-11-13T09:36:27.830Z,34.00
2018-11-13T09:38:56.372Z,31.37
2018-11-13T09:41:25.186Z,29.87
2018-11-13T09:43:53.730Z,29.20
2018-11-13T09:46:22.618Z,27.17
2018-11-13T09:48:51.092Z,29.57
2018-11-13T09:51:19.791Z,28.63
2018-11-13T09:53:48.377Z,31.40
2018-11-13T09:56:17.062Z,29.73
2018-11-13T09:58:45.688Z,36.97
2018-11-13T10:01:14.566Z,39.37
2018-11-13T10:03:43.683Z,40.40
2018-11-13T10:06:11.641Z,33.50
2018-11-13T10:08:40.189Z,34.90
2018-11-13T10:11:08.914Z,34.50
2018-11-13T10:13:37.589Z,29.87
2018-11-13T10:16:06.240Z,34.97
2018-11-13T10:18:34.758Z,33.47
2018-11-13T10:21:03.267Z,29.60
2018-11-13T10:23:31.813Z,27.43
2018-11-13T10:26:00.330Z,25.17
2018-11-13T10:28:28.928Z,28.60
2018-11-13T10:30:57.578Z,26.33
2018-11-13T10:33:26.179Z,26.23
2018-11-13T10:35:54.739Z,27.47
2018-11-13T10:38:23.287Z,28.80
2018-11-13T10:40:51.882Z,25.87
2018-11-13T10:43:20.451Z,30.00
2018-11-13T10:45:49.234Z,27.80
2018-11-13T10:48:17.819Z,29.63
2018-11-13T10:50:46.444Z,25.53
2018-11-13T10:53:15.287Z,32.30
2018-11-13T10:55:43.859Z,29.37
2018-11-13T10:58:12.585Z,30.60
2018-11-13T11:01:45.327Z,26.97
2018-11-13T11:04:19.275Z,28.20
2018-11-13T11:06:47.783Z,28.23
2018-11-13T11:09:16.706Z,26.57
2018-11-13T11:11:45.277Z,29.20
2018-11-13T11:14:13.990Z,29.23
2018-11-13T11:16:42.695Z,25.03
2018-11-13T11:19:11.771Z,26.47
2018-11-13T11:21:41.441Z,27.57
2018-11-13T11:24:10.169Z,24.83
2018-11-13T11:26:38.735Z,23.00
2018-11-13T11:29:07.281Z,25.80
2018-11-13T11:31:35.789Z,27.00
2018-11-13T11:34:04.481Z,26.37
2018-11-13T11:36:33.057Z,29.67
2018-11-13T11:39:02.107Z,25.37
2018-11-13T11:41:30.503Z,30.13
2018-11-13T11:43:59.322Z,30.87
2018-11-13T11:46:27.866Z,27.10
2018-11-13T11:48:56.531Z,27.97
2018-11-13T11:51:25.104Z,26.87
2018-11-13T11:53:53.612Z,29.37
2018-11-13T11:56:22.214Z,28.90
2018-11-13T11:58:50.936Z,34.97
2018-11-13T12:01:19.407Z,27.17
2018-11-13T12:03:50.078Z,29.80
2018-11-13T12:06:18.604Z,28.77
2018-11-13T12:08:47.266Z,33.27
2018-11-13T12:11:15.978Z,29.73
2018-11-13T12:13:44.429Z,31.20
2018-11-13T12:16:14.153Z,29.53
2018-11-13T12:18:42.666Z,27.47
2018-11-13T12:21:11.214Z,29.25
2018-11-13T12:23:40.177Z,29.70
2018-11-13T12:26:09.042Z,28.67
2018-11-13T12:28:37.950Z,32.33
2018-11-13T12:31:06.623Z,32.37
2018-11-13T12:33:35.396Z,31.63
2018-11-13T12:36:03.918Z,32.53
2018-11-13T12:38:32.472Z,35.30
2018-11-13T12:41:00.969Z,34.80
2018-11-13T12:43:29.457Z,33.60
2018-11-13T12:45:58.026Z,30.63
2018-11-13T12:48:27.711Z,31.10
2018-11-13T12:50:59.905Z,32.40
2018-11-13T12:53:28.461Z,33.63
2018-11-13T12:55:56.985Z,33.33
2018-11-13T12:58:25.580Z,32.10
2018-11-13T13:00:54.190Z,35.67
2018-11-13T13:03:22.870Z,34.87
2018-11-13T13:05:51.448Z,30.13
2018-11-13T13:08:19.936Z,32.63
2018-11-13T13:10:48.483Z,38.60
2018-11-13T13:13:16.922Z,36.53
2018-11-13T13:15:45.493Z,35.67
2018-11-13T13:18:14.070Z,35.77
2018-11-13T13:20:42.772Z,42.63
2018-11-13T13:23:11.297Z,40.77
2018-11-13T13:25:40.368Z,42.93
2018-11-13T13:28:10.002Z,45.43
2018-11-13T13:30:39.489Z,46.40
2018-11-13T13:33:09.114Z,50.10
2018-11-13T13:35:43.937Z,47.57
2018-11-13T13:38:13.495Z,42.07
2018-11-13T13:40:44.185Z,41.47
2018-11-13T13:43:14.436Z,43.40
2018-11-13T13:45:44.850Z,39.03
2018-11-13T13:48:14.617Z,36.13
2018-11-13T13:50:44.294Z,38.73
2018-11-13T13:53:15.044Z,36.43
2018-11-13T13:55:45.802Z,35.47
2018-11-13T13:58:15.965Z,36.50
2018-11-13T14:00:46.384Z,37.93
2018-11-13T14:03:16.104Z,33.93
2018-11-13T14:05:46.390Z,26.27
2018-11-13T14:08:16.770Z,25.50
2018-11-13T14:10:46.670Z,20.23
2018-11-13T14:13:16.674Z,18.83
2018-11-13T14:15:46.413Z,23.80
2018-11-13T14:18:16.279Z,27.20
2018-11-13T14:20:46.178Z,23.67
2018-11-13T14:23:15.968Z,21.03
2018-11-13T14:25:45.673Z,23.03
2018-11-13T14:28:15.185Z,13.43
2018-11-13T14:30:45.190Z,17.33
2018-11-13T14:33:14.955Z,17.00
2018-11-13T14:35:44.722Z,18.33
2018-11-13T14:38:14.958Z,17.07
2018-11-13T14:40:45.792Z,18.83
2018-11-13T14:43:16.036Z,17.77
2018-11-13T14:47:15.374Z,20.53
2018-11-13T14:49:45.094Z,22.30
2018-11-13T14:52:14.802Z,20.77
2018-11-13T14:54:44.406Z,22.93
2018-11-13T14:57:14.388Z,24.90
2018-11-13T14:59:44.302Z,22.67
2018-11-13T15:02:14.237Z,21.80
2018-11-13T15:04:43.767Z,20.13
2018-11-13T15:07:13.366Z,20.57
2018-11-13T15:09:43.305Z,17.83
2018-11-13T15:12:12.990Z,20.50
2018-11-13T15:14:42.950Z,20.63
2018-11-13T15:17:12.363Z,21.00
2018-11-13T15:19:41.900Z,22.50
2018-11-13T15:22:12.113Z,23.27
2018-11-13T15:24:42.385Z,28.80
2018-11-13T15:27:12.105Z,25.60
2018-11-13T15:29:41.968Z,22.07
2018-11-13T15:32:10.841Z,30.43
2018-11-13T15:34:39.690Z,26.63
2018-11-13T15:37:08.833Z,22.90
2018-11-13T15:39:37.693Z,21.80
2018-11-13T15:42:07.213Z,18.00
2018-11-13T15:44:36.308Z,19.03
2018-11-13T15:47:05.403Z,18.70
2018-11-13T15:49:34.543Z,21.20
2018-11-13T15:52:03.334Z,24.23
2018-11-13T15:54:33.098Z,25.93
2018-11-13T15:57:02.172Z,31.70
2018-11-13T15:59:30.891Z,31.50
2018-11-13T16:02:00.049Z,30.75
2018-11-13T16:04:28.956Z,27.07
2018-11-13T16:06:59.334Z,34.00
2018-11-13T16:09:28.091Z,30.03
2018-11-13T16:11:56.948Z,33.77
2018-11-13T16:14:26.461Z,31.53
2018-11-13T16:16:55.157Z,29.20
2018-11-13T16:19:24.602Z,32.23
2018-11-13T16:21:53.506Z,31.03
2018-11-13T16:24:22.754Z,26.77
2018-11-13T16:26:51.621Z,29.17
2018-11-13T16:29:20.273Z,29.60
2018-11-13T16:31:49.258Z,30.53
2018-11-13T16:34:17.876Z,27.87
2018-11-13T16:36:47.075Z,28.70
2018-11-13T16:39:15.959Z,30.27
2018-11-13T16:41:44.595Z,36.43
2018-11-13T16:44:13.100Z,26.53
2018-11-13T16:46:41.688Z,34.90
2018-11-13T16:49:10.332Z,33.53
2018-11-13T16:51:39.695Z,32.30
2018-11-13T16:54:08.601Z,24.07
2018-11-13T16:56:51.673Z,25.83
2018-11-13T16:59:20.145Z,32.20
2018-11-13T17:01:48.944Z,32.93
2018-11-13T17:04:17.718Z,53.70
2018-11-13T17:06:46.405Z,24.30
2018-11-13T17:09:14.942Z,33.97
2018-11-13T17:11:43.764Z,22.30
2018-11-13T17:14:12.339Z,31.60
2018-11-13T17:16:41.003Z,33.67
2018-11-13T17:19:09.494Z,32.30
2018-11-13T17:21:38.286Z,32.20
2018-11-13T17:24:06.952Z,31.20
2018-11-13T17:26:36.826Z,32.47
2018-11-13T17:29:06.683Z,25.77
2018-11-13T17:31:35.666Z,28.47
2018-11-13T17:34:04.291Z,32.50
2018-11-13T17:36:32.935Z,32.13
2018-11-13T17:39:01.418Z,25.93
2018-11-13T17:41:30.183Z,27.93
2018-11-13T17:43:58.873Z,20.87
2018-11-13T17:46:27.510Z,23.87
2018-11-13T17:48:56.106Z,19.97
2018-11-13T17:51:24.861Z,22.23
2018-11-13T17:53:53.686Z,23.50
2018-11-13T17:56:22.256Z,22.37
2018-11-13T17:58:50.991Z,25.63
2018-11-13T18:01:19.733Z,26.53
2018-11-13T18:03:48.302Z,24.40
2018-11-13T18:06:16.912Z,23.63
2018-11-13T18:08:46.373Z,19.23
2018-11-13T18:11:15.058Z,28.23
2018-11-13T18:13:43.553Z,23.93
2018-11-13T18:16:12.038Z,25.00
2018-11-13T18:18:40.529Z,24.67
2018-11-13T18:21:09.006Z,20.17
2018-11-13T18:23:37.781Z,23.70
2018-11-13T18:26:06.653Z,25.80
2018-11-13T18:28:36.084Z,22.70
2018-11-13T18:31:06.305Z,28.50
2018-11-13T18:33:35.784Z,27.30
2018-11-13T18:36:05.585Z,28.00
2018-11-13T18:38:35.314Z,30.23
2018-11-13T18:41:04.930Z,27.93
2018-11-13T18:43:34.375Z,27.40
2018-11-13T18:46:04.218Z,28.33
2018-11-13T18:48:34.029Z,26.30
2018-11-13T18:51:03.816Z,27.80
2018-11-13T18:53:33.846Z,26.83
2018-11-13T18:56:03.387Z,31.83
2018-11-13T18:58:32.692Z,30.03
2018-11-13T19:01:01.848Z,31.37
2018-11-13T19:03:31.486Z,31.20
2018-11-13T19:06:01.323Z,29.40
2018-11-13T19:08:31.107Z,27.67
2018-11-13T19:11:03.377Z,31.73
2018-11-13T19:13:33.339Z,32.67
2018-11-13T19:16:05.369Z,32.43
2018-11-13T19:18:36.296Z,32.93
2018-11-13T19:21:06.447Z,33.23
2018-11-13T19:23:36.207Z,29.43
2018-11-13T19:26:05.849Z,29.77
2018-11-13T19:28:35.243Z,34.43
2018-11-13T19:31:05.119Z,33.10
2018-11-13T19:33:34.525Z,27.83
2018-11-13T19:36:04.637Z,35.30
2018-11-13T19:38:34.059Z,33.10
2018-11-13T19:41:04.008Z,30.33
2018-11-13T19:43:33.542Z,32.00
2018-11-13T19:46:03.106Z,30.37
2018-11-13T19:50:02.610Z,27.13
2018-11-13T19:52:32.102Z,29.43
2018-11-13T19:55:01.737Z,24.67
2018-11-13T19:57:31.214Z,25.20
2018-11-13T20:00:02.935Z,23.13
2018-11-13T20:02:32.546Z,22.97
2018-11-13T20:05:02.254Z,24.13
2018-11-13T20:07:31.166Z,20.23
2018-11-13T20:10:00.092Z,24.70
2018-11-13T20:12:29.252Z,22.00
2018-11-13T20:14:59.620Z,20.37
2018-11-13T20:17:28.604Z,18.40
2018-11-13T20:19:57.642Z,19.83
2018-11-13T20:22:26.162Z,17.40
2018-11-13T20:24:54.607Z,22.27
2018-11-13T20:27:23.154Z,20.33
2018-11-13T20:29:51.736Z,19.87
2018-11-13T20:32:20.346Z,21.23
2018-11-13T20:34:49.094Z,20.17
2018-11-13T20:37:17.678Z,18.50
2018-11-13T20:39:46.206Z,18.10
2018-11-13T20:42:14.814Z,20.57
2018-11-13T20:44:44.687Z,19.37
2018-11-13T20:47:14.679Z,20.80
2018-11-13T20:49:43.828Z,18.40
2018-11-13T20:52:12.695Z,23.20
2018-11-13T20:54:42.501Z,24.63
2018-11-13T20:57:11.243Z,22.97
2018-11-13T20:59:39.815Z,22.30
2018-11-13T21:02:09.710Z,23.42
2018-11-13T21:04:38.415Z,21.23
2018-11-13T21:07:07.531Z,21.40
2018-11-13T21:09:36.154Z,21.97
2018-11-13T21:12:04.741Z,23.60
2018-11-13T21:14:33.327Z,19.37
2018-11-13T21:17:02.336Z,18.33
2018-11-13T21:19:31.350Z,13.50
2018-11-13T21:22:00.281Z,13.93
2018-11-13T21:24:28.848Z,17.13
2018-11-13T21:26:57.523Z,17.17
2018-11-13T21:29:26.581Z,16.00
2018-11-13T21:31:55.018Z,16.05
2018-11-13T21:34:23.576Z,18.57
2018-11-13T21:36:53.265Z,14.97
2018-11-13T21:39:22.001Z,16.57
2018-11-13T21:41:50.777Z,14.73
2018-11-13T21:44:19.429Z,12.67
2018-11-13T21:46:47.947Z,10.97
2018-11-13T21:49:17.742Z,7.73
2018-11-13T21:51:46.492Z,9.90
2018-11-13T21:54:15.134Z,7.70
2018-11-13T21:56:43.694Z,4.67
2018-11-13T21:59:12.315Z,5.63
2018-11-13T22:01:40.775Z,4.10
2018-11-13T22:04:09.463Z,4.67
2018-11-13T22:06:38.351Z,6.93
2018-11-13T22:09:10.935Z,7.93
2018-11-13T22:11:39.629Z,7.00
2018-11-13T22:14:08.223Z,7.33
2018-11-13T22:16:36.933Z,6.97
2018-11-13T22:19:05.763Z,9.03
2018-11-13T22:21:34.211Z,8.50
2018-11-13T22:24:02.767Z,8.63
2018-11-13T22:26:31.231Z,9.93
2018-11-13T22:28:59.800Z,7.43
2018-11-13T22:31:28.519Z,6.72
2018-11-13T22:33:57.045Z,6.57
2018-11-13T22:36:25.523Z,8.20
2018-11-13T22:38:54.286Z,5.83
2018-11-13T22:41:22.726Z,7.43
2018-11-13T22:43:51.205Z,6.60
2018-11-13T22:46:19.726Z,6.40
2018-11-13T22:48:48.404Z,8.50
2018-11-13T22:51:16.897Z,7.17
2018-11-13T22:53:45.638Z,5.50
2018-11-13T22:56:14.224Z,5.93
2018-11-13T22:58:42.917Z,8.43
2018-11-13T23:01:11.584Z,5.53
2018-11-13T23:03:40.008Z,5.83
2018-11-13T23:06:08.524Z,6.07
2018-11-13T23:08:36.983Z,3.23
2018-11-13T23:11:12.630Z,3.43
2018-11-13T23:13:41.326Z,3.23
2018-11-13T23:16:09.876Z,4.30
2018-11-13T23:18:38.397Z,2.23
2018-11-13T23:21:07.289Z,4.00
2018-11-13T23:23:35.788Z,3.00
2018-11-13T23:26:04.310Z,3.47
2018-11-13T23:28:32.944Z,2.03
2018-11-13T23:31:02.614Z,3.03
2018-11-13T23:33:31.406Z,3.20
2018-11-13T23:36:00.194Z,2.03
2018-11-13T23:38:28.744Z,3.53
2018-11-13T23:40:57.438Z,4.47
2018-11-13T23:43:25.938Z,3.20
2018-11-13T23:45:54.450Z,3.10
2018-11-13T23:48:23.155Z,6.37
2018-11-13T23:50:51.623Z,4.80
2018-11-13T23:53:20.358Z,7.10
2018-11-13T23:55:48.843Z,5.33
2018-11-13T23:58:17.343Z,5.37
